Time;durP1;ratioP1;P1;durP2;ratioP2;P2;SDS_P1;SDS_P2;PMS_P1;PMS_P2;Temp;Humidity;BMP_temperature;BMP_pressure;BME280_temperature;BME280_humidity;BME280_pressure;Samples;Min_cycle;Max_cycle;Signal;HPM_P1;HPM_P2
2022/07/30 00:01:17;;;;;;;5.40;4.90;;;24.60;59.60;;;25.23;45.79;94959.66;5049790;28;20475;-63
2022/07/30 00:03:45;;;;;;;13.73;4.80;;;24.60;60.00;;;25.23;46.77;94964.22;5046111;28;20452;-59
2022/07/30 00:06:12;;;;;;;5.70;5.10;;;24.60;60.90;;;25.20;46.37;94961.97;5048465;28;20545;-63
2022/07/30 00:08:39;;;;;;;6.53;5.43;;;24.60;61.40;;;25.16;47.23;94958.09;5048723;28;20498;-60
2022/07/30 00:11:06;;;;;;;5.30;4.87;;;24.50;61.30;;;25.10;46.76;94945.56;5045751;28;20479;-65
2022/07/30 00:13:35;;;;;;;5.80;5.30;;;24.50;61.90;;;25.04;47.32;94950.00;5048293;28;20984;-59
2022/07/30 00:16:02;;;;;;;4.87;4.40;;;24.40;62.10;;;24.98;47.17;94946.34;5047230;28;20486;-63
2022/07/30 00:18:29;;;;;;;14.80;4.90;;;24.40;61.20;;;24.93;46.63;94954.28;5047581;28;20525;-62
2022/07/30 00:20:56;;;;;;;3.67;3.47;;;24.30;61.20;;;24.90;46.18;94943.97;5046492;28;21035;-63
2022/07/30 00:23:24;;;;;;;4.43;3.63;;;24.30;60.30;;;24.90;46.34;94946.66;5047188;28;20455;-59
2022/07/30 00:25:51;;;;;;;8.97;3.60;;;24.30;60.30;;;24.92;46.42;94951.81;5047279;28;21019;-64
2022/07/30 00:28:18;;;;;;;4.07;3.40;;;24.30;60.00;;;24.95;45.53;94951.38;5048221;28;20528;-59
2022/07/30 00:30:47;;;;;;;3.70;3.40;;;24.30;59.80;;;24.97;46.03;94954.66;5045468;28;20513;-58
2022/07/30 00:33:14;;;;;;;4.63;4.23;;;24.40;59.70;;;24.99;45.43;94948.00;5048816;28;20459;-58
2022/07/30 00:35:41;;;;;;;4.77;4.37;;;24.40;60.00;;;25.00;45.92;94955.03;5048525;28;20459;-58
2022/07/30 00:38:08;;;;;;;6.60;5.03;;;24.40;60.80;;;25.00;47.01;94959.56;5053000;28;20483;-59
2022/07/30 00:40:35;;;;;;;6.00;5.40;;;24.40;61.50;;;25.00;46.53;94955.03;5050493;28;20459;-58
2022/07/30 00:43:02;;;;;;;4.30;3.90;;;24.40;61.60;;;24.97;46.76;94960.03;5050513;28;20524;-64
2022/07/30 00:45:30;;;;;;;7.67;4.73;;;24.30;62.00;;;24.93;47.35;94953.47;5051207;28;20995;-58
2022/07/30 00:48:00;;;;;;;4.90;4.43;;;24.30;62.70;;;24.86;48.11;94949.00;5050598;28;20985;-63
2022/07/30 00:50:27;;;;;;;9.80;6.00;;;24.30;63.10;;;24.78;48.08;94952.00;5049745;28;20503;-64
2022/07/30 00:52:54;;;;;;;17.70;5.30;;;24.20;63.60;;;24.70;48.01;94941.53;5049506;28;20451;-65
2022/07/30 00:55:21;;;;;;;9.80;4.80;;;24.10;63.40;;;24.60;48.96;94938.56;5052165;28;20463;-64
2022/07/30 00:57:49;;;;;;;6.63;5.20;;;24.00;64.10;;;24.50;48.50;94944.44;5056195;28;21164;-63
2022/07/30 01:00:16;;;;;;;11.13;5.20;;;23.90;64.10;;;24.42;49.25;94942.06;5052152;28;20455;-64
2022/07/30 01:02:44;;;;;;;8.20;5.07;;;23.80;64.00;;;24.35;49.10;94936.75;5049787;28;20482;-58
2022/07/30 01:05:12;;;;;;;8.40;4.80;;;23.80;64.50;;;24.25;49.75;94937.28;5050813;28;20455;-64
2022/07/30 01:07:39;;;;;;;5.77;5.23;;;23.70;65.20;;;24.17;49.80;94938.41;5050564;28;20486;-63
2022/07/30 01:10:08;;;;;;;4.90;4.50;;;23.60;65.40;;;24.13;50.20;94939.06;5052320;28;20517;-58
2022/07/30 01:12:35;;;;;;;6.20;4.57;;;23.60;65.70;;;24.09;50.10;94937.84;5048863;28;20490;-59
2022/07/30 01:15:04;;;;;;;4.50;4.20;;;23.50;66.00;;;24.06;49.83;94941.81;5051275;28;20459;-58
2022/07/30 01:17:32;;;;;;;5.17;4.67;;;23.50;66.70;;;24.03;50.08;94939.59;5047182;28;20602;-58
2022/07/30 01:20:02;;;;;;;8.03;5.00;;;23.50;66.10;;;23.96;50.05;94939.63;5054700;28;20543;-58
2022/07/30 01:22:39;;;;;;;10.37;5.30;;;23.40;66.50;;;23.92;51.02;94938.44;5048700;28;20463;-63
2022/07/30 01:25:12;;;;;;;10.17;4.37;;;23.40;66.80;;;23.89;50.53;94938.06;5045697;28;21059;-58
2022/07/30 01:27:44;;;;;;;6.80;4.33;;;23.30;67.80;;;23.85;50.47;94937.69;5052357;28;20862;-58
2022/07/30 01:30:13;;;;;;;5.23;4.70;;;23.30;67.10;;;23.83;50.81;94942.44;5049024;28;21004;-63
2022/07/30 01:32:42;;;;;;;5.47;4.97;;;23.30;67.50;;;23.80;50.76;94934.81;5055253;28;20540;-58
2022/07/30 01:35:10;;;;;;;5.23;4.67;;;23.20;67.60;;;23.78;51.00;94939.56;5052374;28;20460;-63
2022/07/30 01:37:37;;;;;;;7.10;4.80;;;23.20;67.80;;;23.75;50.75;94946.22;5053417;28;20843;-64
2022/07/30 01:40:06;;;;;;;8.23;5.07;;;23.20;68.00;;;23.74;50.71;94946.44;5050774;28;20489;-59
2022/07/30 01:42:34;;;;;;;24.53;4.40;;;23.20;68.30;;;23.71;51.43;94947.69;5049106;28;20472;-63
2022/07/30 01:45:02;;;;;;;5.23;4.73;;;23.10;68.10;;;23.68;50.99;94945.44;5048887;28;20486;-59
2022/07/30 01:47:29;;;;;;;4.87;4.47;;;23.10;68.40;;;23.66;52.00;94939.47;5049046;28;20547;-63
2022/07/30 01:49:57;;;;;;;8.50;5.20;;;23.10;68.90;;;23.62;51.52;94943.63;5044942;28;20553;-59
2022/07/30 01:52:24;;;;;;;4.70;4.30;;;23.00;68.80;;;23.59;52.00;94944.91;5047559;28;20475;-59
2022/07/30 01:54:51;;;;;;;7.53;4.47;;;23.00;68.80;;;23.57;51.19;94941.59;5048849;28;20460;-63
2022/07/30 01:57:19;;;;;;;5.57;5.03;;;23.00;69.00;;;23.53;51.68;94936.91;5048884;28;20471;-63
2022/07/30 01:59:50;;;;;;;5.63;4.90;;;23.00;68.80;;;23.49;51.69;94939.22;5050472;28;20467;-58
2022/07/30 02:02:19;;;;;;;5.53;5.00;;;22.90;69.00;;;23.47;51.93;94941.28;5044933;28;20501;-57
2022/07/30 02:04:46;;;;;;;6.40;4.97;;;22.90;69.00;;;23.45;52.15;94938.00;5052593;28;20459;-58
2022/07/30 02:07:18;;;;;;;4.87;4.57;;;22.90;69.40;;;23.41;51.87;94934.94;5053123;28;21077;-63
2022/07/30 02:09:53;;;;;;;4.87;4.40;;;22.90;69.70;;;23.40;51.94;94935.16;5051803;28;20833;-59
2022/07/30 02:12:30;;;;;;;6.07;5.27;;;22.80;69.70;;;23.36;51.63;94929.41;5048110;28;21058;-58
2022/07/30 02:15:07;;;;;;;5.93;5.43;;;22.80;69.70;;;23.32;52.21;94933.56;5047191;28;20500;-64
2022/07/30 02:17:42;;;;;;;4.80;4.50;;;22.80;69.60;;;23.28;52.34;94929.66;5045059;28;20540;-63
2022/07/30 02:20:11;;;;;;;6.50;4.90;;;22.70;69.90;;;23.24;52.26;94944.56;5047029;28;20455;-59
2022/07/30 02:22:43;;;;;;;9.70;4.80;;;22.70;70.00;;;23.21;51.87;94937.75;5046558;28;20479;-57
2022/07/30 02:25:10;;;;;;;5.37;4.87;;;22.60;70.40;;;23.18;52.71;94932.81;5044563;28;20882;-63
2022/07/30 02:27:39;;;;;;;5.47;4.97;;;22.70;70.90;;;23.16;52.47;94934.91;5046860;28;20514;-63
2022/07/30 02:30:08;;;;;;;5.27;4.83;;;22.60;71.10;;;23.14;52.44;94934.28;5046513;28;20498;-62
2022/07/30 02:32:38;;;;;;;9.23;4.70;;;22.60;71.10;;;23.12;52.84;94932.88;5046363;28;20475;-58
2022/07/30 02:35:11;;;;;;;7.07;4.80;;;22.60;71.10;;;23.10;53.04;94930.41;5047398;28;20509;-64
2022/07/30 02:37:39;;;;;;;5.33;4.83;;;22.60;71.60;;;23.06;52.75;94929.97;5047154;28;20514;-64
2022/07/30 02:40:08;;;;;;;4.83;4.33;;;22.50;71.70;;;23.04;53.16;94925.88;5047430;28;20462;-64
2022/07/30 02:42:35;;;;;;;5.00;4.70;;;22.50;71.90;;;23.01;52.93;94923.63;5047003;28;20511;-60
2022/07/30 02:45:03;;;;;;;6.37;5.30;;;22.50;72.00;;;22.99;52.80;94926.53;5049946;28;20551;-64
2022/07/30 02:47:30;;;;;;;8.80;4.83;;;22.40;71.90;;;22.98;53.15;94935.59;5047634;28;20599;-59
2022/07/30 02:49:59;;;;;;;5.37;4.90;;;22.40;72.00;;;22.96;52.90;94934.16;5047878;28;20495;-57
2022/07/30 02:52:26;;;;;;;6.47;5.60;;;22.40;72.20;;;22.94;53.09;94925.50;5049841;28;20539;-58
2022/07/30 02:54:53;;;;;;;4.90;4.53;;;22.40;72.60;;;22.93;53.27;94932.75;5044692;28;20541;-63
2022/07/30 02:57:20;;;;;;;6.53;4.40;;;22.40;73.20;;;22.89;53.32;94924.28;5049021;28;20472;-63
2022/07/30 02:59:47;;;;;;;5.07;4.67;;;22.30;72.30;;;22.85;53.43;94925.78;5052678;28;20520;-64
2022/07/30 03:02:15;;;;;;;4.97;4.57;;;22.30;72.70;;;22.84;53.27;94921.44;5050573;28;20474;-64
2022/07/30 03:04:42;;;;;;;8.60;5.73;;;22.30;73.10;;;22.85;53.54;94922.25;5046118;28;20870;-60
2022/07/30 03:07:10;;;;;;;4.80;4.50;;;22.30;73.30;;;22.82;53.25;94917.31;5047773;28;20471;-59
2022/07/30 03:09:39;;;;;;;7.57;5.13;;;22.30;73.10;;;22.80;53.21;94908.69;5056236;28;20506;-59
2022/07/30 03:12:10;;;;;;;5.03;4.60;;;22.20;73.10;;;22.78;53.22;94911.56;5058058;28;20478;-64
2022/07/30 03:14:38;;;;;;;7.10;5.10;;;22.20;73.00;;;22.77;53.40;94906.44;5050100;28;20452;-58
2022/07/30 03:17:06;;;;;;;5.23;4.73;;;22.20;73.40;;;22.76;53.59;94910.97;5044306;28;20475;-63
2022/07/30 03:19:33;;;;;;;5.30;4.60;;;22.20;73.70;;;22.72;53.03;94905.19;5050895;28;20463;-59
2022/07/30 03:22:01;;;;;;;6.13;5.60;;;22.20;73.30;;;22.71;53.32;94910.78;5048396;28;20625;-63
2022/07/30 03:24:30;;;;;;;5.73;5.20;;;22.10;73.20;;;22.69;53.60;94910.19;5050187;28;21055;-60
2022/07/30 03:26:59;;;;;;;5.17;4.33;;;22.10;73.90;;;22.69;54.06;94912.84;5047826;28;20471;-63
2022/07/30 03:29:26;;;;;;;5.80;5.30;;;22.10;74.10;;;22.68;53.69;94917.41;5043338;28;20507;-58
2022/07/30 03:31:54;;;;;;;5.40;4.90;;;22.10;74.10;;;22.68;53.81;94921.94;5046707;28;20490;-64
2022/07/30 03:34:21;;;;;;;5.10;4.60;;;22.10;74.40;;;22.69;53.69;94924.41;5048528;28;20452;-58
2022/07/30 03:36:48;;;;;;;5.60;5.10;;;22.10;74.50;;;22.70;53.88;94922.56;5052440;28;20889;-64
2022/07/30 03:39:15;;;;;;;9.13;4.70;;;22.10;74.70;;;22.69;53.58;94919.03;5049631;28;20467;-59
2022/07/30 03:41:44;;;;;;;14.03;5.27;;;22.20;74.90;;;22.70;53.69;94927.91;5049011;28;20803;-58
2022/07/30 03:44:11;;;;;;;5.43;5.03;;;22.10;74.90;;;22.72;53.58;94931.19;5045548;28;20459;-59
2022/07/30 03:46:38;;;;;;;15.23;4.97;;;22.10;74.90;;;22.73;53.83;94927.50;5050206;28;21023;-64
2022/07/30 03:49:05;;;;;;;14.83;4.93;;;22.20;75.20;;;22.75;53.84;94930.78;5048399;28;20509;-63
2022/07/30 03:51:33;;;;;;;18.80;5.00;;;22.20;75.50;;;22.76;53.65;94934.25;5048077;28;20817;-58
2022/07/30 03:54:00;;;;;;;4.63;4.23;;;22.20;75.40;;;22.76;53.60;94932.44;5052644;28;20460;-64
2022/07/30 03:56:28;;;;;;;8.10;5.00;;;22.20;75.30;;;22.78;54.14;94935.72;5045271;28;21016;-59
2022/07/30 03:58:56;;;;;;;13.67;5.30;;;22.20;75.50;;;22.77;53.42;94931.38;5048634;28;21321;-65
2022/07/30 04:01:25;;;;;;;7.37;4.63;;;22.20;75.60;;;22.82;53.94;94936.94;5048935;28;21015;-59
2022/07/30 04:03:52;;;;;;;5.40;4.90;;;22.30;75.70;;;22.86;54.21;94940.81;5047200;28;20510;-57
2022/07/30 04:06:19;;;;;;;9.33;5.30;;;22.30;75.70;;;22.90;53.69;94944.72;5047248;28;20472;-64
2022/07/30 04:08:46;;;;;;;6.47;5.07;;;22.30;75.80;;;22.91;53.41;94942.84;5047193;28;20511;-59
2022/07/30 04:11:14;;;;;;;6.20;4.57;;;22.30;76.50;;;22.90;54.09;94942.03;5050294;28;20506;-58
2022/07/30 04:13:41;;;;;;;5.20;4.70;;;22.40;75.80;;;22.91;53.87;94938.34;5053454;28;20491;-63
2022/07/30 04:16:11;;;;;;;5.47;4.90;;;22.40;75.90;;;22.94;54.12;94944.28;5051075;28;20478;-59
2022/07/30 04:18:42;;;;;;;11.40;5.50;;;22.40;75.90;;;22.97;53.59;94955.41;5049789;28;20454;-58
2022/07/30 04:21:11;;;;;;;10.37;5.03;;;22.40;76.30;;;22.99;54.23;94953.34;5057992;28;20532;-64
2022/07/30 04:23:38;;;;;;;4.97;4.67;;;22.40;76.60;;;23.01;53.89;94947.78;5056107;28;20530;-59
2022/07/30 04:26:05;;;;;;;6.00;4.60;;;22.50;76.00;;;23.04;53.80;94952.69;5054285;28;20908;-59
2022/07/30 04:28:33;;;;;;;6.83;5.43;;;22.50;76.50;;;23.07;53.83;94952.28;5051781;28;20513;-65
2022/07/30 04:31:00;;;;;;;11.03;5.70;;;22.50;76.50;;;23.10;53.65;94949.19;5052666;28;20564;-63
2022/07/30 04:33:28;;;;;;;5.77;5.13;;;22.50;76.50;;;23.15;53.67;94957.41;5053149;28;20455;-58
2022/07/30 04:35:55;;;;;;;5.30;4.80;;;22.60;76.40;;;23.17;53.48;94958.00;5054786;28;20476;-59
2022/07/30 04:38:23;;;;;;;5.73;5.17;;;22.60;76.40;;;23.20;54.03;94962.94;5056573;28;20664;-64
2022/07/30 04:40:50;;;;;;;7.50;4.80;;;22.60;76.40;;;23.22;53.51;94963.56;5055125;28;20480;-59
2022/07/30 04:43:17;;;;;;;6.00;5.50;;;22.70;76.30;;;23.25;53.45;94968.50;5054553;28;20631;-59
2022/07/30 04:45:44;;;;;;;10.30;5.27;;;22.70;76.40;;;23.31;53.38;94963.28;5055753;28;20855;-64
2022/07/30 04:48:11;;;;;;;5.20;4.90;;;22.70;76.60;;;23.36;53.99;94966.13;5054436;28;20528;-58
2022/07/30 04:50:42;;;;;;;7.20;5.37;;;22.70;76.70;;;23.44;53.48;94957.84;5054550;28;20482;-64
2022/07/30 04:53:10;;;;;;;11.90;5.67;;;22.80;76.70;;;23.48;53.05;94956.34;5053736;28;20471;-58
2022/07/30 04:55:37;;;;;;;10.53;5.80;;;22.90;76.40;;;23.54;53.26;94952.78;5058780;28;20459;-57
2022/07/30 04:58:05;;;;;;;6.43;5.83;;;22.90;76.60;;;23.58;53.67;94942.44;5048951;28;20455;-65
2022/07/30 05:00:33;;;;;;;6.63;5.83;;;23.00;76.90;;;23.60;53.69;94941.16;5054534;28;20474;-63
2022/07/30 05:03:01;;;;;;;5.50;4.77;;;23.10;76.70;;;23.66;53.32;94944.84;5052271;28;20512;-60
2022/07/30 05:05:31;;;;;;;7.83;5.57;;;23.10;77.10;;;23.72;53.11;94941.28;5060510;28;20869;-59
2022/07/30 05:08:00;;;;;;;5.33;4.93;;;23.10;77.00;;;23.77;53.08;94941.44;5056958;28;20452;-58
2022/07/30 05:10:27;;;;;;;6.67;6.07;;;23.20;77.30;;;23.83;53.23;94950.50;5051721;28;20491;-63
2022/07/30 05:12:54;;;;;;;17.50;5.90;;;23.20;77.00;;;23.90;53.57;94950.44;5054629;28;20512;-58
2022/07/30 05:15:22;;;;;;;5.40;5.00;;;23.30;77.30;;;23.98;53.08;94947.47;5050578;28;20506;-59
2022/07/30 05:17:49;;;;;;;11.03;5.30;;;23.40;77.80;;;24.08;53.56;94944.28;5049393;28;20479;-58
2022/07/30 05:20:16;;;;;;;5.97;5.37;;;23.50;77.70;;;24.17;53.08;94940.28;5060205;28;20541;-64
2022/07/30 05:22:43;;;;;;;9.83;5.10;;;23.50;77.00;;;24.28;52.47;94950.28;5052281;28;20483;-58
2022/07/30 05:25:12;;;;;;;8.57;5.67;;;23.60;77.10;;;24.40;53.04;94950.34;5056648;28;20463;-58
2022/07/30 05:27:39;;;;;;;6.13;5.40;;;23.80;77.20;;;24.55;52.86;94952.66;5049808;28;21027;-64
2022/07/30 05:30:09;;;;;;;6.67;5.63;;;23.90;76.90;;;24.73;52.02;94942.97;5047941;28;20463;-65
2022/07/30 05:32:36;;;;;;;7.93;5.90;;;24.00;76.50;;;24.91;51.75;94940.25;5049774;28;20563;-63
2022/07/30 05:35:04;;;;;;;6.90;4.97;;;24.20;76.20;;;25.14;51.49;94944.06;5051233;28;20986;-59
2022/07/30 05:37:32;;;;;;;15.70;7.20;;;24.40;75.60;;;25.34;50.98;94946.50;5053438;28;20475;-58
2022/07/30 05:39:59;;;;;;;10.43;6.03;;;24.60;75.00;;;25.55;50.59;94945.13;5051278;28;20542;-64
2022/07/30 05:42:28;;;;;;;8.13;5.97;;;24.80;74.30;;;25.76;50.34;94951.81;5048500;28;21004;-56
2022/07/30 05:44:55;;;;;;;11.77;6.00;;;25.00;73.70;;;25.99;50.10;94951.03;5048434;28;20467;-58
2022/07/30 05:47:22;;;;;;;9.13;5.47;;;25.20;73.00;;;26.19;49.81;94952.56;5053259;28;20474;-64
2022/07/30 05:49:49;;;;;;;8.90;6.03;;;25.40;72.30;;;26.40;49.38;94948.44;5049543;28;20467;-65
2022/07/30 05:52:17;;;;;;;10.63;5.67;;;25.60;71.80;;;26.62;48.54;94954.03;5049373;28;20499;-58
2022/07/30 05:54:44;;;;;;;8.53;6.53;;;25.80;70.90;;;26.82;48.27;94953.66;5048953;28;20455;-58
2022/07/30 05:57:11;;;;;;;6.13;5.20;;;26.00;69.80;;;26.99;47.89;94959.13;5051462;28;20594;-59
2022/07/30 05:59:40;;;;;;;9.53;5.53;;;26.20;69.30;;;27.15;47.65;94955.63;5046509;28;20521;-58
2022/07/30 06:02:07;;;;;;;5.53;5.03;;;26.30;68.60;;;27.33;47.36;94957.34;5049285;28;20548;-59
2022/07/30 06:04:34;;;;;;;15.33;6.30;;;26.50;68.10;;;27.52;47.00;94957.94;5049854;28;20521;-64
2022/07/30 06:07:01;;;;;;;7.63;6.50;;;26.70;67.50;;;27.73;46.34;94958.28;5047395;28;20558;-66
2022/07/30 06:09:29;;;;;;;11.93;5.17;;;26.90;66.80;;;27.93;46.43;94959.66;5054013;28;20522;-57
2022/07/30 06:11:56;;;;;;;9.37;5.50;;;27.10;66.90;;;28.12;46.04;94960.25;5048099;28;20960;-58
2022/07/30 06:14:25;;;;;;;9.97;5.57;;;27.30;66.00;;;28.30;45.89;94964.56;5049856;28;20454;-65
2022/07/30 06:16:54;;;;;;;11.50;5.70;;;27.50;65.20;;;28.42;45.50;94959.88;5045969;28;20551;-60
2022/07/30 06:19:21;;;;;;;8.67;5.53;;;27.60;64.60;;;28.53;45.11;94958.94;5046588;28;20448;-58
2022/07/30 06:21:48;;;;;;;8.67;5.90;;;27.70;64.20;;;28.70;45.00;94956.22;5047558;28;20462;-61
2022/07/30 06:24:15;;;;;;;7.97;5.70;;;27.90;63.70;;;28.90;44.25;94962.94;5043804;28;20451;-66
2022/07/30 06:26:43;;;;;;;8.40;6.27;;;28.10;63.30;;;29.11;44.07;94955.84;5046953;28;20995;-66
2022/07/30 06:29:10;;;;;;;11.50;5.23;;;28.30;62.90;;;29.29;44.00;94952.81;5047539;28;21022;-60
2022/07/30 06:31:38;;;;;;;11.80;7.00;;;28.40;62.40;;;29.49;43.73;94951.41;5046428;28;20499;-64
2022/07/30 06:34:07;;;;;;;13.70;5.77;;;28.60;61.30;;;29.65;43.80;94952.34;5048040;28;20451;-66
2022/07/30 06:36:34;;;;;;;25.23;6.50;;;28.80;61.30;;;29.79;43.26;94952.72;5042636;28;20486;-57
2022/07/30 06:39:01;;;;;;;7.40;5.37;;;28.90;60.80;;;29.93;42.74;94948.56;5045688;28;20504;-60
2022/07/30 06:41:29;;;;;;;14.13;5.27;;;29.10;60.60;;;30.10;42.81;94947.56;5047167;28;20705;-67
2022/07/30 06:43:56;;;;;;;7.90;5.73;;;29.30;60.20;;;30.27;42.75;94940.09;5047067;28;20460;-67
2022/07/30 06:46:23;;;;;;;15.60;5.70;;;29.40;59.70;;;30.44;41.72;94939.13;5046726;28;20303;-58
2022/07/30 06:48:50;;;;;;;7.73;4.90;;;29.50;59.20;;;30.59;41.46;94931.06;5046190;28;20262;-59
2022/07/30 06:51:19;;;;;;;6.60;5.60;;;29.70;58.80;;;30.77;42.11;94923.50;5046961;28;20239;-69
2022/07/30 06:53:47;;;;;;;6.40;5.50;;;29.90;58.50;;;30.95;41.36;94917.59;5047051;28;20219;-58
2022/07/30 06:56:14;;;;;;;7.13;4.80;;;30.10;58.30;;;31.14;40.54;94914.41;5045463;28;20240;-67
2022/07/30 06:58:41;;;;;;;8.20;4.50;;;30.30;57.70;;;31.28;40.25;94910.94;5046231;28;20205;-64
2022/07/30 07:01:08;;;;;;;6.27;4.40;;;30.40;56.60;;;31.37;40.50;94908.50;5045803;28;20225;-67
2022/07/30 07:03:36;;;;;;;8.13;4.93;;;30.60;56.70;;;31.54;40.43;94915.59;5042857;28;20291;-66
2022/07/30 07:06:04;;;;;;;9.83;4.83;;;30.70;56.30;;;31.63;39.47;94917.50;5045971;28;20721;-59
2022/07/30 07:08:33;;;;;;;6.33;4.90;;;30.80;55.40;;;31.60;39.56;94909.91;5047903;28;20284;-60
2022/07/30 07:11:00;;;;;;;5.10;4.70;;;30.80;55.00;;;31.68;39.56;94913.97;5051835;28;20717;-66
2022/07/30 07:13:27;;;;;;;8.23;4.17;;;30.90;55.20;;;31.84;39.03;94913.94;5050058;28;20192;-65
2022/07/30 07:15:55;;;;;;;4.87;4.27;;;31.00;54.50;;;31.80;38.38;94902.81;5048521;28;20283;-64
2022/07/30 07:18:22;;;;;;;4.77;4.37;;;31.00;53.60;;;31.68;37.74;94915.88;5044771;28;20193;-59
2022/07/30 07:20:49;;;;;;;5.10;4.37;;;30.90;52.80;;;31.48;38.56;94897.63;5047126;28;20282;-59
2022/07/30 07:23:16;;;;;;;9.23;4.60;;;30.90;53.20;;;31.41;38.75;94909.56;5047996;28;20197;-59
2022/07/30 07:25:46;;;;;;;4.83;4.43;;;30.80;53.60;;;31.48;38.39;94908.50;5041087;28;20204;-58
2022/07/30 07:28:13;;;;;;;9.87;4.93;;;30.70;53.40;;;31.45;38.16;94918.03;5043058;28;20697;-63
2022/07/30 07:30:40;;;;;;;4.80;4.33;;;30.70;53.30;;;31.38;38.65;94904.69;5045760;28;20209;-63
2022/07/30 07:33:08;;;;;;;7.00;3.87;;;30.70;53.20;;;31.46;38.96;94909.59;5045649;28;20296;-63
2022/07/30 07:35:35;;;;;;;4.63;4.23;;;30.80;53.40;;;31.61;38.32;94918.88;5044324;28;20265;-60
2022/07/30 07:38:02;;;;;;;4.80;4.50;;;30.90;53.20;;;31.75;38.67;94903.63;5048283;28;20631;-59
2022/07/30 07:40:29;;;;;;;4.75;4.40;;;30.90;53.00;;;31.92;37.78;94908.78;5046177;28;20205;-60
2022/07/30 07:42:58;;;;;;;13.98;5.82;;;31.10;52.90;;;32.11;38.34;94905.53;5046412;28;20270;-62
2022/07/30 07:45:25;;;;;;;5.43;4.95;;;31.30;53.10;;;32.16;38.43;94902.78;5046119;28;20201;-61
2022/07/30 07:47:52;;;;;;;7.63;5.18;;;31.40;53.60;;;32.08;37.89;94906.84;5045920;28;20224;-63
2022/07/30 07:50:20;;;;;;;7.03;5.05;;;31.30;53.20;;;31.98;39.21;94902.25;5045737;28;20266;-60
2022/07/30 07:52:47;;;;;;;7.35;5.32;;;31.20;54.40;;;31.91;39.21;94898.19;5044336;28;20236;-59
2022/07/30 07:55:14;;;;;;;11.13;5.10;;;31.10;54.30;;;31.85;39.68;94900.06;5040921;28;20250;-66
2022/07/30 07:57:42;;;;;;;5.70;4.95;;;31.10;54.80;;;31.84;40.38;94892.19;5045281;28;20306;-58
2022/07/30 08:00:13;;;;;;;8.35;5.35;;;31.10;55.70;;;31.84;40.39;94905.78;5044984;28;20670;-67
2022/07/30 08:02:40;;;;;;;6.65;4.43;;;31.00;55.20;;;31.77;40.43;94901.44;5043074;28;20228;-59
2022/07/30 08:05:11;;;;;;;8.83;5.70;;;31.00;55.60;;;31.65;40.23;94898.19;5043071;28;20201;-58
2022/07/30 08:07:38;;;;;;;5.03;4.63;;;30.90;54.80;;;31.52;39.67;94904.16;5043644;28;20224;-58
2022/07/30 08:10:07;;;;;;;5.47;4.35;;;30.90;54.40;;;31.35;39.90;94888.91;5044886;28;20230;-58
2022/07/30 08:12:34;;;;;;;6.55;4.65;;;30.80;54.70;;;31.31;40.60;94895.16;5044467;28;20312;-61
2022/07/30 08:15:02;;;;;;;5.33;4.93;;;30.60;55.10;;;31.31;41.03;94893.28;5042900;28;20221;-58
2022/07/30 08:17:30;;;;;;;6.50;5.35;;;30.60;55.70;;;31.42;41.57;94897.63;5044021;28;20744;-62
2022/07/30 08:20:00;;;;;;;5.73;5.07;;;30.70;56.80;;;31.50;40.25;94890.03;5045191;28;20229;-60
2022/07/30 08:22:27;;;;;;;5.10;4.70;;;30.70;55.60;;;31.56;40.31;94886.25;5036288;28;20278;-62
2022/07/30 08:24:55;;;;;;;5.07;4.72;;;30.80;55.20;;;31.62;39.61;94887.84;5044286;28;20505;-58
2022/07/30 08:27:22;;;;;;;6.60;5.50;;;30.90;54.40;;;31.70;39.52;94884.59;5045242;28;20224;-58
2022/07/30 08:29:49;;;;;;;5.95;5.03;;;30.90;54.30;;;31.79;39.10;94888.41;5044624;28;20632;-61
2022/07/30 08:32:17;;;;;;;5.03;4.30;;;31.00;53.50;;;31.81;38.79;94886.22;5043451;28;20540;-59
2022/07/30 08:34:45;;;;;;;5.60;5.10;;;31.10;53.70;;;31.80;38.57;94884.56;5044364;28;20204;-58
2022/07/30 08:37:13;;;;;;;7.43;5.32;;;31.10;53.60;;;31.83;38.78;94882.41;5044000;28;20217;-61
2022/07/30 08:39:40;;;;;;;12.80;5.90;;;31.10;53.40;;;31.87;39.18;94880.75;5044596;28;20306;-61
2022/07/30 08:42:07;;;;;;;4.80;4.30;;;31.10;53.30;;;31.96;38.86;94873.69;5044403;28;20217;-58
2022/07/30 08:44:35;;;;;;;5.43;5.03;;;31.20;53.70;;;32.07;38.21;94877.19;5044307;28;20254;-59
2022/07/30 08:47:02;;;;;;;6.47;5.35;;;31.30;53.30;;;32.22;38.17;94873.66;5042786;28;20227;-59
2022/07/30 08:49:30;;;;;;;7.03;5.18;;;31.40;52.80;;;32.34;38.07;94866.00;5044313;28;20197;-58
2022/07/30 08:51:58;;;;;;;6.93;5.32;;;31.50;52.50;;;32.48;38.21;94860.78;5040926;28;20279;-58
2022/07/30 08:54:26;;;;;;;22.05;7.85;;;31.70;52.70;;;32.66;37.81;94862.91;5044467;28;20262;-60
2022/07/30 08:56:53;;;;;;;11.65;5.28;;;31.80;52.00;;;32.84;37.72;94856.00;5044967;28;20241;-59
2022/07/30 08:59:20;;;;;;;9.63;4.72;;;32.00;52.10;;;33.00;37.24;94861.34;5048368;28;20193;-59
2022/07/30 09:01:48;;;;;;;13.55;6.93;;;32.20;51.90;;;33.17;37.33;94853.63;5046537;28;20274;-58
2022/07/30 09:04:15;;;;;;;11.43;5.07;;;32.30;51.90;;;33.35;37.07;94857.59;5046039;28;20208;-60
2022/07/30 09:06:43;;;;;;;5.97;4.88;;;32.50;51.40;;;33.52;37.13;94853.66;5044610;28;20222;-60
2022/07/30 09:09:11;;;;;;;10.52;5.22;;;32.70;51.20;;;33.70;36.25;94847.50;5050308;28;20262;-62
2022/07/30 09:11:39;;;;;;;7.60;4.68;;;32.80;50.60;;;33.80;35.88;94852.06;5046958;28;20232;-61
2022/07/30 09:14:09;;;;;;;7.88;5.15;;;33.00;49.90;;;33.90;35.86;94846.50;5048252;28;20263;-62
2022/07/30 09:16:37;;;;;;;19.85;8.02;;;33.10;49.60;;;34.04;35.70;94837.66;5046015;28;20221;-58
2022/07/30 09:19:13;;;;;;;15.52;4.72;;;33.20;49.50;;;34.17;34.98;94841.59;5048219;28;20627;-59
2022/07/30 09:21:40;;;;;;;11.25;6.45;;;33.30;49.10;;;34.28;34.87;94829.47;5048077;28;20666;-58
2022/07/30 09:24:09;;;;;;;7.55;5.03;;;33.40;48.90;;;34.40;35.38;94832.63;5047315;28;20223;-58
2022/07/30 09:26:54;;;;;;;10.30;5.15;;;33.60;48.90;;;34.45;34.22;94835.28;5047769;28;20213;-59
2022/07/30 09:29:22;;;;;;;13.68;4.60;;;33.60;47.40;;;34.48;34.53;94822.97;5046179;28;20279;-58
2022/07/30 09:32:00;;;;;;;5.18;4.85;;;33.70;48.00;;;34.50;33.93;94820.75;5046237;28;20229;-58
2022/07/30 09:34:29;;;;;;;5.45;5.03;;;33.70;47.10;;;34.55;33.80;94823.41;5044875;28;20201;-63
2022/07/30 09:36:57;;;;;;;7.40;5.47;;;33.70;47.50;;;34.58;33.24;94825.56;5047212;28;20224;-58
2022/07/30 09:39:34;;;;;;;6.32;5.32;;;33.80;46.50;;;34.65;33.80;94822.47;5047412;28;20762;-58
2022/07/30 09:42:04;;;;;;;8.80;5.90;;;33.80;46.70;;;34.79;33.63;94819.84;5044349;28;20309;-59
2022/07/30 09:44:32;;;;;;;5.40;4.35;;;33.90;47.20;;;34.88;33.09;94820.81;5045042;28;20193;-63
2022/07/30 09:47:01;;;;;;;9.55;4.43;;;34.00;45.90;;;34.93;33.78;94823.47;5045577;28;20224;-58
2022/07/30 09:49:29;;;;;;;5.82;5.03;;;34.10;46.10;;;34.90;33.31;94821.31;5044762;28;20299;-63
2022/07/30 09:51:57;;;;;;;4.72;4.40;;;34.10;45.60;;;34.82;32.71;94814.59;5045639;28;20240;-59
2022/07/30 09:54:25;;;;;;;6.05;4.68;;;34.10;45.40;;;34.74;33.05;94808.97;5047304;28;20205;-62
2022/07/30 09:57:07;;;;;;;8.88;4.70;;;34.00;45.60;;;34.73;33.38;94799.94;5045822;28;20272;-60
2022/07/30 09:59:35;;;;;;;5.07;4.68;;;34.00;45.70;;;34.79;33.30;94798.78;5046833;28;20636;-57
2022/07/30 10:02:02;;;;;;;11.18;4.72;;;34.00;46.00;;;34.87;32.93;94794.59;5046026;28;20702;-58
2022/07/30 10:04:30;;;;;;;8.93;4.38;;;34.00;45.70;;;34.94;32.33;94802.44;5046768;28;20193;-63
2022/07/30 10:06:58;;;;;;;11.55;4.97;;;34.10;45.30;;;34.95;32.04;94787.63;5045087;28;20729;-64
2022/07/30 10:09:27;;;;;;;5.82;4.30;;;34.10;44.60;;;34.97;32.36;94779.97;5046511;28;20201;-63
2022/07/30 10:11:56;;;;;;;5.97;4.35;;;34.20;45.00;;;35.07;32.40;94779.00;5045211;28;20236;-63
2022/07/30 10:14:31;;;;;;;5.15;4.60;;;34.20;44.80;;;35.14;32.29;94784.91;5039935;28;20254;-59
2022/07/30 10:16:59;;;;;;;5.32;4.82;;;34.30;44.90;;;35.22;32.52;94786.94;5046232;28;20220;-60
2022/07/30 10:19:26;;;;;;;6.15;5.35;;;34.40;44.50;;;35.19;31.20;94782.06;5044595;28;20200;-59
2022/07/30 10:21:56;;;;;;;5.38;4.90;;;34.40;44.10;;;35.15;31.94;94776.41;5040989;28;20241;-59